ilmateenistus.ee keskkonnaagentuur.ee
EETN Tallinna lennuväli
FTEO31 EETN 012300
TAF EETN 012330Z 0200/0224 20006KT 9999 SCT030 TEMPO 0200/0210 2000
    SHRA BKN003 SCT013CB OVC015 BECMG 0206/0208 25016KT BECMG 0210/0212
    BKN015 BECMG 0212/0214 23020G30KT TEMPO 0218/0224 4000 SHRA BKN007
    SCT025CB=

METAR COR EETN 020220Z 20010KT 9999 SCT031 03/02 Q0993 R08/00//95 =
Tallinna lennuväli
EEKA Kärdla lennuväli
METAR EEKA 020150Z NIL=
Kärdla lennuväli
EEKE Kuressaare lennuväli
METAR EEKE 020150Z AUTO 22009KT 9999NDV FEW004 04/04 Q0995=
Kuressaare lennuväli
EEPU Pärnu lennuväli
METAR EEPU 020150Z NIL=
Pärnu lennuväli
EETU Tartu lennuväli
METAR EETU 020220Z AUTO 22010KT 9999 OVC009/// 02/01 Q0996=
Tartu lennuväli
EEEI Ämari lennuväli
METAR EEEI 020220Z AUTO 18010KT 9999 FEW008 03/02 Q0993 R24/190095=
Ämari lennuväli